sensor_id;sensor_type;location;lat;lon;timestamp;P1;durP1;ratioP1;P2;durP2;ratioP2
60492;SDS011;46341;51.290;-2.474;2022-08-11T00:01:48;1.65;;;1.55;;
60492;SDS011;46341;51.290;-2.474;2022-08-11T00:04:15;3.30;;;1.75;;
60492;SDS011;46341;51.290;-2.474;2022-08-11T00:06:43;1.70;;;1.60;;
60492;SDS011;46341;51.290;-2.474;2022-08-11T00:09:20;2.88;;;1.73;;
60492;SDS011;46341;51.290;-2.474;2022-08-11T00:11:48;3.55;;;1.88;;
60492;SDS011;46341;51.290;-2.474;2022-08-11T00:14:25;4.63;;;1.60;;
60492;SDS011;46341;51.290;-2.474;2022-08-11T00:17:10;2.67;;;1.80;;
60492;SDS011;46341;51.290;-2.474;2022-08-11T00:19:38;3.55;;;2.00;;
60492;SDS011;46341;51.290;-2.474;2022-08-11T00:22:27;1.85;;;1.70;;
60492;SDS011;46341;51.290;-2.474;2022-08-11T00:24:55;2.88;;;1.67;;
60492;SDS011;46341;51.290;-2.474;2022-08-11T00:27:34;2.03;;;1.70;;
60492;SDS011;46341;51.290;-2.474;2022-08-11T00:30:01;1.80;;;1.70;;
60492;SDS011;46341;51.290;-2.474;2022-08-11T00:32:28;2.42;;;1.65;;
60492;SDS011;46341;51.290;-2.474;2022-08-11T00:34:55;3.08;;;1.90;;
60492;SDS011;46341;51.290;-2.474;2022-08-11T00:37:44;2.55;;;2.22;;
60492;SDS011;46341;51.290;-2.474;2022-08-11T00:40:14;2.78;;;1.70;;
60492;SDS011;46341;51.290;-2.474;2022-08-11T00:45:10;4.13;;;2.05;;
60492;SDS011;46341;51.290;-2.474;2022-08-11T00:50:23;1.63;;;1.52;;
60492;SDS011;46341;51.290;-2.474;2022-08-11T01:00:25;2.75;;;2.10;;
60492;SDS011;46341;51.290;-2.474;2022-08-11T01:05:59;5.07;;;2.15;;
60492;SDS011;46341;51.290;-2.474;2022-08-11T01:12:08;2.55;;;2.38;;
60492;SDS011;46341;51.290;-2.474;2022-08-11T01:20:21;3.80;;;2.22;;
60492;SDS011;46341;51.290;-2.474;2022-08-11T01:36:27;2.65;;;2.10;;
60492;SDS011;46341;51.290;-2.474;2022-08-11T01:55:39;2.67;;;2.08;;
60492;SDS011;46341;51.290;-2.474;2022-08-11T01:58:12;6.18;;;2.63;;
60492;SDS011;46341;51.290;-2.474;2022-08-11T02:00:47;3.17;;;2.55;;
60492;SDS011;46341;51.290;-2.474;2022-08-11T02:03:24;4.18;;;2.10;;
60492;SDS011;46341;51.290;-2.474;2022-08-11T02:06:13;3.42;;;2.20;;
60492;SDS011;46341;51.290;-2.474;2022-08-11T02:11:31;2.35;;;2.13;;
60492;SDS011;46341;51.290;-2.474;2022-08-11T02:19:24;3.10;;;2.30;;
60492;SDS011;46341;51.290;-2.474;2022-08-11T02:22:24;2.55;;;2.35;;
60492;SDS011;46341;51.290;-2.474;2022-08-11T02:25:29;2.30;;;2.15;;
60492;SDS011;46341;51.290;-2.474;2022-08-11T02:28:05;2.50;;;2.25;;
60492;SDS011;46341;51.290;-2.474;2022-08-11T02:30:36;2.25;;;2.00;;
60492;SDS011;46341;51.290;-2.474;2022-08-11T02:55:07;3.00;;;2.65;;
60492;SDS011;46341;51.290;-2.474;2022-08-11T02:57:58;2.30;;;2.10;;
60492;SDS011;46341;51.290;-2.474;2022-08-11T03:00:29;2.72;;;2.50;;
60492;SDS011;46341;51.290;-2.474;2022-08-11T03:05:29;2.80;;;2.50;;
60492;SDS011;46341;51.290;-2.474;2022-08-11T03:13:40;2.45;;;2.22;;
60492;SDS011;46341;51.290;-2.474;2022-08-11T03:16:27;2.50;;;2.13;;
60492;SDS011;46341;51.290;-2.474;2022-08-11T03:21:58;2.50;;;2.30;;
60492;SDS011;46341;51.290;-2.474;2022-08-11T03:27:29;2.17;;;2.08;;
60492;SDS011;46341;51.290;-2.474;2022-08-11T03:30:05;2.65;;;2.35;;
60492;SDS011;46341;51.290;-2.474;2022-08-11T03:35:03;2.63;;;2.42;;
60492;SDS011;46341;51.290;-2.474;2022-08-11T03:38:04;2.20;;;2.00;;
60492;SDS011;46341;51.290;-2.474;2022-08-11T03:51:51;2.83;;;2.33;;
60492;SDS011;46341;51.290;-2.474;2022-08-11T03:54:28;2.60;;;2.40;;
60492;SDS011;46341;51.290;-2.474;2022-08-11T04:16:05;4.15;;;2.40;;
60492;SDS011;46341;51.290;-2.474;2022-08-11T04:35:11;3.33;;;2.25;;
60492;SDS011;46341;51.290;-2.474;2022-08-11T04:37:45;4.03;;;2.50;;
60492;SDS011;46341;51.290;-2.474;2022-08-11T04:43:12;4.63;;;2.72;;
60492;SDS011;46341;51.290;-2.474;2022-08-11T04:57:40;5.35;;;2.45;;
60492;SDS011;46341;51.290;-2.474;2022-08-11T05:00:20;3.22;;;2.63;;
60492;SDS011;46341;51.290;-2.474;2022-08-11T05:03:19;3.03;;;2.40;;
60492;SDS011;46341;51.290;-2.474;2022-08-11T05:16:47;3.88;;;3.13;;
60492;SDS011;46341;51.290;-2.474;2022-08-11T05:19:33;4.82;;;2.97;;
60492;SDS011;46341;51.290;-2.474;2022-08-11T05:22:18;3.22;;;2.67;;
60492;SDS011;46341;51.290;-2.474;2022-08-11T05:28:13;4.82;;;3.13;;
60492;SDS011;46341;51.290;-2.474;2022-08-11T05:30:59;5.72;;;3.10;;
60492;SDS011;46341;51.290;-2.474;2022-08-11T05:33:48;4.07;;;3.00;;
60492;SDS011;46341;51.290;-2.474;2022-08-11T05:36:39;3.88;;;2.92;;
60492;SDS011;46341;51.290;-2.474;2022-08-11T05:39:10;5.88;;;3.17;;
60492;SDS011;46341;51.290;-2.474;2022-08-11T05:42:02;4.28;;;3.00;;
60492;SDS011;46341;51.290;-2.474;2022-08-11T05:45:03;5.72;;;3.05;;
60492;SDS011;46341;51.290;-2.474;2022-08-11T05:47:49;5.00;;;3.53;;
60492;SDS011;46341;51.290;-2.474;2022-08-11T05:50:33;3.90;;;3.60;;
60492;SDS011;46341;51.290;-2.474;2022-08-11T05:53:20;4.97;;;3.85;;
60492;SDS011;46341;51.290;-2.474;2022-08-11T05:56:11;4.43;;;4.05;;
60492;SDS011;46341;51.290;-2.474;2022-08-11T05:58:52;4.75;;;4.35;;
60492;SDS011;46341;51.290;-2.474;2022-08-11T06:01:31;4.38;;;3.95;;
60492;SDS011;46341;51.290;-2.474;2022-08-11T06:03:59;4.20;;;3.90;;
60492;SDS011;46341;51.290;-2.474;2022-08-11T06:06:49;4.13;;;3.83;;
60492;SDS011;46341;51.290;-2.474;2022-08-11T06:09:20;5.75;;;3.70;;
60492;SDS011;46341;51.290;-2.474;2022-08-11T06:11:47;5.57;;;4.07;;
60492;SDS011;46341;51.290;-2.474;2022-08-11T06:14:14;4.53;;;3.83;;
60492;SDS011;46341;51.290;-2.474;2022-08-11T06:16:41;4.65;;;3.78;;
60492;SDS011;46341;51.290;-2.474;2022-08-11T06:19:08;4.75;;;3.83;;
60492;SDS011;46341;51.290;-2.474;2022-08-11T06:24:11;4.50;;;4.10;;
60492;SDS011;46341;51.290;-2.474;2022-08-11T06:26:41;4.10;;;3.50;;
60492;SDS011;46341;51.290;-2.474;2022-08-11T06:29:33;7.38;;;3.75;;
60492;SDS011;46341;51.290;-2.474;2022-08-11T06:32:17;4.18;;;3.75;;
60492;SDS011;46341;51.290;-2.474;2022-08-11T06:40:09;6.45;;;4.38;;
60492;SDS011;46341;51.290;-2.474;2022-08-11T06:42:50;6.50;;;4.22;;
60492;SDS011;46341;51.290;-2.474;2022-08-11T06:47:45;4.57;;;3.90;;
60492;SDS011;46341;51.290;-2.474;2022-08-11T06:50:15;7.78;;;4.28;;
60492;SDS011;46341;51.290;-2.474;2022-08-11T06:53:02;6.32;;;4.38;;
60492;SDS011;46341;51.290;-2.474;2022-08-11T06:55:30;5.68;;;3.97;;
60492;SDS011;46341;51.290;-2.474;2022-08-11T06:58:25;3.97;;;3.65;;
60492;SDS011;46341;51.290;-2.474;2022-08-11T07:01:12;5.35;;;3.55;;
60492;SDS011;46341;51.290;-2.474;2022-08-11T07:03:43;5.78;;;3.50;;
60492;SDS011;46341;51.290;-2.474;2022-08-11T07:09:23;3.75;;;3.38;;
60492;SDS011;46341;51.290;-2.474;2022-08-11T07:13:01;4.40;;;3.20;;
60492;SDS011;46341;51.290;-2.474;2022-08-11T07:15:59;4.65;;;3.17;;
60492;SDS011;46341;51.290;-2.474;2022-08-11T07:18:39;3.83;;;3.38;;
60492;SDS011;46341;51.290;-2.474;2022-08-11T07:21:31;4.13;;;2.90;;
60492;SDS011;46341;51.290;-2.474;2022-08-11T07:24:28;5.43;;;3.50;;
60492;SDS011;46341;51.290;-2.474;2022-08-11T07:27:29;4.32;;;3.22;;
60492;SDS011;46341;51.290;-2.474;2022-08-11T07:30:15;5.18;;;3.45;;
60492;SDS011;46341;51.290;-2.474;2022-08-11T07:32:48;4.57;;;3.00;;
60492;SDS011;46341;51.290;-2.474;2022-08-11T07:35:16;4.80;;;2.90;;
60492;SDS011;46341;51.290;-2.474;2022-08-11T07:37:45;4.55;;;3.22;;
60492;SDS011;46341;51.290;-2.474;2022-08-11T07:40:13;4.88;;;3.15;;
60492;SDS011;46341;51.290;-2.474;2022-08-11T07:42:41;4.15;;;2.78;;
60492;SDS011;46341;51.290;-2.474;2022-08-11T07:45:11;4.18;;;2.85;;
60492;SDS011;46341;51.290;-2.474;2022-08-11T07:47:56;3.00;;;2.70;;
60492;SDS011;46341;51.290;-2.474;2022-08-11T07:50:42;5.93;;;3.13;;
60492;SDS011;46341;51.290;-2.474;2022-08-11T07:53:28;5.47;;;2.90;;
60492;SDS011;46341;51.290;-2.474;2022-08-11T07:55:56;4.13;;;2.85;;
60492;SDS011;46341;51.290;-2.474;2022-08-11T07:58:23;4.20;;;2.80;;
60492;SDS011;46341;51.290;-2.474;2022-08-11T08:01:21;3.90;;;2.75;;
60492;SDS011;46341;51.290;-2.474;2022-08-11T08:04:07;2.97;;;2.47;;
60492;SDS011;46341;51.290;-2.474;2022-08-11T08:06:53;2.40;;;2.30;;
60492;SDS011;46341;51.290;-2.474;2022-08-11T08:09:38;3.35;;;2.30;;
60492;SDS011;46341;51.290;-2.474;2022-08-11T08:12:24;3.42;;;2.10;;
60492;SDS011;46341;51.290;-2.474;2022-08-11T08:15:10;2.63;;;2.13;;
60492;SDS011;46341;51.290;-2.474;2022-08-11T08:17:56;2.05;;;1.60;;
60492;SDS011;46341;51.290;-2.474;2022-08-11T08:20:44;2.55;;;1.83;;
60492;SDS011;46341;51.290;-2.474;2022-08-11T08:23:11;2.30;;;1.70;;
60492;SDS011;46341;51.290;-2.474;2022-08-11T08:25:39;1.73;;;1.60;;
60492;SDS011;46341;51.290;-2.474;2022-08-11T08:28:08;3.67;;;2.10;;
60492;SDS011;46341;51.290;-2.474;2022-08-11T08:30:35;3.92;;;1.70;;
60492;SDS011;46341;51.290;-2.474;2022-08-11T08:33:20;2.17;;;1.50;;
60492;SDS011;46341;51.290;-2.474;2022-08-11T08:36:05;4.38;;;1.75;;
60492;SDS011;46341;51.290;-2.474;2022-08-11T08:38:40;5.07;;;2.00;;
60492;SDS011;46341;51.290;-2.474;2022-08-11T08:41:07;21.52;;;3.08;;
60492;SDS011;46341;51.290;-2.474;2022-08-11T08:43:38;5.35;;;2.00;;
60492;SDS011;46341;51.290;-2.474;2022-08-11T08:46:14;2.15;;;1.52;;
60492;SDS011;46341;51.290;-2.474;2022-08-11T08:48:42;4.40;;;1.80;;
60492;SDS011;46341;51.290;-2.474;2022-08-11T08:51:11;2.70;;;1.50;;
60492;SDS011;46341;51.290;-2.474;2022-08-11T08:54:18;4.88;;;1.55;;
60492;SDS011;46341;51.290;-2.474;2022-08-11T08:56:45;3.65;;;1.80;;
60492;SDS011;46341;51.290;-2.474;2022-08-11T08:59:12;2.20;;;1.42;;
60492;SDS011;46341;51.290;-2.474;2022-08-11T09:01:41;3.17;;;1.33;;
60492;SDS011;46341;51.290;-2.474;2022-08-11T09:04:08;2.58;;;1.50;;
60492;SDS011;46341;51.290;-2.474;2022-08-11T09:06:39;4.05;;;1.90;;
60492;SDS011;46341;51.290;-2.474;2022-08-11T09:09:08;1.60;;;1.50;;
60492;SDS011;46341;51.290;-2.474;2022-08-11T09:11:37;2.40;;;1.30;;
60492;SDS011;46341;51.290;-2.474;2022-08-11T09:14:22;1.30;;;1.08;;
60492;SDS011;46341;51.290;-2.474;2022-08-11T09:16:49;2.08;;;1.30;;
60492;SDS011;46341;51.290;-2.474;2022-08-11T09:19:17;1.60;;;1.30;;
60492;SDS011;46341;51.290;-2.474;2022-08-11T09:21:45;2.63;;;1.30;;
60492;SDS011;46341;51.290;-2.474;2022-08-11T09:24:32;1.50;;;1.40;;
60492;SDS011;46341;51.290;-2.474;2022-08-11T09:27:18;3.85;;;1.42;;
60492;SDS011;46341;51.290;-2.474;2022-08-11T09:29:45;1.00;;;1.00;;
60492;SDS011;46341;51.290;-2.474;2022-08-11T09:32:12;2.80;;;1.60;;
60492;SDS011;46341;51.290;-2.474;2022-08-11T09:34:40;1.38;;;1.05;;
60492;SDS011;46341;51.290;-2.474;2022-08-11T09:37:07;1.70;;;1.02;;
60492;SDS011;46341;51.290;-2.474;2022-08-11T09:40:13;1.50;;;1.10;;
60492;SDS011;46341;51.290;-2.474;2022-08-11T09:42:59;2.80;;;1.13;;
60492;SDS011;46341;51.290;-2.474;2022-08-11T09:45:46;2.03;;;1.35;;
60492;SDS011;46341;51.290;-2.474;2022-08-11T09:48:23;1.85;;;1.10;;
60492;SDS011;46341;51.290;-2.474;2022-08-11T09:50:51;2.67;;;1.20;;
60492;SDS011;46341;51.290;-2.474;2022-08-11T09:53:18;2.97;;;1.30;;
60492;SDS011;46341;51.290;-2.474;2022-08-11T09:56:06;2.78;;;1.23;;
60492;SDS011;46341;51.290;-2.474;2022-08-11T09:58:53;3.20;;;1.17;;
60492;SDS011;46341;51.290;-2.474;2022-08-11T10:01:21;1.23;;;1.08;;
60492;SDS011;46341;51.290;-2.474;2022-08-11T10:03:55;1.30;;;1.20;;
60492;SDS011;46341;51.290;-2.474;2022-08-11T10:06:23;1.55;;;1.00;;
60492;SDS011;46341;51.290;-2.474;2022-08-11T10:09:14;2.45;;;1.00;;
60492;SDS011;46341;51.290;-2.474;2022-08-11T10:11:41;4.93;;;1.35;;
60492;SDS011;46341;51.290;-2.474;2022-08-11T10:14:20;1.70;;;0.98;;
60492;SDS011;46341;51.290;-2.474;2022-08-11T10:17:12;2.00;;;0.90;;
60492;SDS011;46341;51.290;-2.474;2022-08-11T10:19:39;1.55;;;1.20;;
60492;SDS011;46341;51.290;-2.474;2022-08-11T10:22:07;2.60;;;1.10;;
60492;SDS011;46341;51.290;-2.474;2022-08-11T10:24:53;2.78;;;1.23;;
60492;SDS011;46341;51.290;-2.474;2022-08-11T10:27:44;1.58;;;0.75;;
60492;SDS011;46341;51.290;-2.474;2022-08-11T10:30:32;2.83;;;1.13;;
60492;SDS011;46341;51.290;-2.474;2022-08-11T10:33:17;1.75;;;1.15;;
60492;SDS011;46341;51.290;-2.474;2022-08-11T10:36:22;1.67;;;1.23;;
60492;SDS011;46341;51.290;-2.474;2022-08-11T10:38:49;1.42;;;1.08;;
60492;SDS011;46341;51.290;-2.474;2022-08-11T10:41:18;2.80;;;1.10;;
60492;SDS011;46341;51.290;-2.474;2022-08-11T10:44:23;1.42;;;1.33;;
60492;SDS011;46341;51.290;-2.474;2022-08-11T10:46:50;1.35;;;1.20;;
60492;SDS011;46341;51.290;-2.474;2022-08-11T10:49:35;1.60;;;1.20;;
60492;SDS011;46341;51.290;-2.474;2022-08-11T10:52:02;1.42;;;1.33;;
60492;SDS011;46341;51.290;-2.474;2022-08-11T10:54:47;3.03;;;1.30;;
60492;SDS011;46341;51.290;-2.474;2022-08-11T10:57:32;1.20;;;1.17;;
60492;SDS011;46341;51.290;-2.474;2022-08-11T11:00:30;1.35;;;1.15;;
60492;SDS011;46341;51.290;-2.474;2022-08-11T11:02:56;1.23;;;1.20;;
60492;SDS011;46341;51.290;-2.474;2022-08-11T11:05:45;1.15;;;1.00;;
60492;SDS011;46341;51.290;-2.474;2022-08-11T11:08:32;1.65;;;1.40;;
60492;SDS011;46341;51.290;-2.474;2022-08-11T11:11:27;1.20;;;0.95;;
60492;SDS011;46341;51.290;-2.474;2022-08-11T11:14:15;3.30;;;1.30;;
60492;SDS011;46341;51.290;-2.474;2022-08-11T11:17:11;1.00;;;1.00;;
60492;SDS011;46341;51.290;-2.474;2022-08-11T11:19:40;1.58;;;1.05;;
60492;SDS011;46341;51.290;-2.474;2022-08-11T11:22:07;4.82;;;1.15;;
60492;SDS011;46341;51.290;-2.474;2022-08-11T11:24:59;3.65;;;1.33;;
60492;SDS011;46341;51.290;-2.474;2022-08-11T11:27:35;1.95;;;1.02;;
60492;SDS011;46341;51.290;-2.474;2022-08-11T11:30:11;2.97;;;0.90;;
60492;SDS011;46341;51.290;-2.474;2022-08-11T11:32:43;0.98;;;0.98;;
60492;SDS011;46341;51.290;-2.474;2022-08-11T11:37:44;1.92;;;1.00;;
60492;SDS011;46341;51.290;-2.474;2022-08-11T11:40:29;2.83;;;0.90;;
60492;SDS011;46341;51.290;-2.474;2022-08-11T11:42:57;1.35;;;0.70;;
60492;SDS011;46341;51.290;-2.474;2022-08-11T11:45:24;1.10;;;0.70;;
60492;SDS011;46341;51.290;-2.474;2022-08-11T11:47:52;0.80;;;0.80;;
60492;SDS011;46341;51.290;-2.474;2022-08-11T11:50:23;1.55;;;0.98;;
60492;SDS011;46341;51.290;-2.474;2022-08-11T11:52:57;2.28;;;0.80;;
60492;SDS011;46341;51.290;-2.474;2022-08-11T11:55:25;2.08;;;1.00;;
60492;SDS011;46341;51.290;-2.474;2022-08-11T11:57:52;1.00;;;0.70;;
60492;SDS011;46341;51.290;-2.474;2022-08-11T12:00:44;1.30;;;0.80;;
60492;SDS011;46341;51.290;-2.474;2022-08-11T12:03:30;1.08;;;0.80;;
60492;SDS011;46341;51.290;-2.474;2022-08-11T12:05:57;3.58;;;0.95;;
60492;SDS011;46341;51.290;-2.474;2022-08-11T12:08:23;0.80;;;0.80;;
60492;SDS011;46341;51.290;-2.474;2022-08-11T12:13:40;1.63;;;0.95;;
60492;SDS011;46341;51.290;-2.474;2022-08-11T12:16:11;1.00;;;0.80;;
60492;SDS011;46341;51.290;-2.474;2022-08-11T12:18:58;2.50;;;1.00;;
60492;SDS011;46341;51.290;-2.474;2022-08-11T12:21:26;4.40;;;1.02;;
60492;SDS011;46341;51.290;-2.474;2022-08-11T12:23:53;0.85;;;0.77;;
60492;SDS011;46341;51.290;-2.474;2022-08-11T12:26:39;0.80;;;0.73;;
60492;SDS011;46341;51.290;-2.474;2022-08-11T12:29:35;1.75;;;0.95;;
60492;SDS011;46341;51.290;-2.474;2022-08-11T12:32:09;1.45;;;0.90;;
60492;SDS011;46341;51.290;-2.474;2022-08-11T12:34:35;2.42;;;0.88;;
60492;SDS011;46341;51.290;-2.474;2022-08-11T12:37:02;2.83;;;0.60;;
60492;SDS011;46341;51.290;-2.474;2022-08-11T12:39:40;1.48;;;0.80;;
60492;SDS011;46341;51.290;-2.474;2022-08-11T12:42:45;0.85;;;0.80;;
60492;SDS011;46341;51.290;-2.474;2022-08-11T12:45:46;2.20;;;0.95;;
60492;SDS011;46341;51.290;-2.474;2022-08-11T12:48:17;2.08;;;0.70;;
60492;SDS011;46341;51.290;-2.474;2022-08-11T12:51:23;4.30;;;1.30;;
60492;SDS011;46341;51.290;-2.474;2022-08-11T12:54:30;0.65;;;0.65;;
60492;SDS011;46341;51.290;-2.474;2022-08-11T12:57:00;1.88;;;0.80;;
60492;SDS011;46341;51.290;-2.474;2022-08-11T13:00:06;4.85;;;0.98;;
60492;SDS011;46341;51.290;-2.474;2022-08-11T13:02:51;1.77;;;1.02;;
60492;SDS011;46341;51.290;-2.474;2022-08-11T13:05:37;1.98;;;1.00;;
60492;SDS011;46341;51.290;-2.474;2022-08-11T13:08:10;1.92;;;0.90;;
60492;SDS011;46341;51.290;-2.474;2022-08-11T13:10:37;1.77;;;1.00;;
60492;SDS011;46341;51.290;-2.474;2022-08-11T13:13:22;3.42;;;1.05;;
60492;SDS011;46341;51.290;-2.474;2022-08-11T13:16:09;2.53;;;0.70;;
60492;SDS011;46341;51.290;-2.474;2022-08-11T13:18:37;1.50;;;0.90;;
60492;SDS011;46341;51.290;-2.474;2022-08-11T13:21:04;3.55;;;1.02;;
60492;SDS011;46341;51.290;-2.474;2022-08-11T13:23:31;2.13;;;1.00;;
60492;SDS011;46341;51.290;-2.474;2022-08-11T13:25:58;2.25;;;0.90;;
60492;SDS011;46341;51.290;-2.474;2022-08-11T13:28:24;2.97;;;0.85;;
60492;SDS011;46341;51.290;-2.474;2022-08-11T13:30:51;2.78;;;1.00;;
60492;SDS011;46341;51.290;-2.474;2022-08-11T13:33:46;2.78;;;1.13;;
60492;SDS011;46341;51.290;-2.474;2022-08-11T13:36:16;0.90;;;0.80;;
60492;SDS011;46341;51.290;-2.474;2022-08-11T13:38:44;2.05;;;0.82;;
60492;SDS011;46341;51.290;-2.474;2022-08-11T13:41:16;2.60;;;1.00;;
60492;SDS011;46341;51.290;-2.474;2022-08-11T13:44:01;2.10;;;1.13;;
60492;SDS011;46341;51.290;-2.474;2022-08-11T13:46:27;3.25;;;0.98;;
60492;SDS011;46341;51.290;-2.474;2022-08-11T13:48:55;4.05;;;0.98;;
60492;SDS011;46341;51.290;-2.474;2022-08-11T13:51:26;4.32;;;1.10;;
60492;SDS011;46341;51.290;-2.474;2022-08-11T13:54:04;5.70;;;1.17;;
60492;SDS011;46341;51.290;-2.474;2022-08-11T13:56:31;2.97;;;1.02;;
60492;SDS011;46341;51.290;-2.474;2022-08-11T13:58:58;2.60;;;1.00;;
60492;SDS011;46341;51.290;-2.474;2022-08-11T14:01:28;2.50;;;0.90;;
60492;SDS011;46341;51.290;-2.474;2022-08-11T14:04:16;1.10;;;1.00;;
60492;SDS011;46341;51.290;-2.474;2022-08-11T14:06:57;2.67;;;1.05;;
60492;SDS011;46341;51.290;-2.474;2022-08-11T14:09:27;1.45;;;0.80;;
60492;SDS011;46341;51.290;-2.474;2022-08-11T14:11:59;4.15;;;1.13;;
60492;SDS011;46341;51.290;-2.474;2022-08-11T14:14:58;1.63;;;0.70;;
60492;SDS011;46341;51.290;-2.474;2022-08-11T14:17:31;2.03;;;1.00;;
60492;SDS011;46341;51.290;-2.474;2022-08-11T14:20:13;2.15;;;0.98;;
60492;SDS011;46341;51.290;-2.474;2022-08-11T14:23:01;1.17;;;0.90;;
60492;SDS011;46341;51.290;-2.474;2022-08-11T14:25:28;1.85;;;1.00;;
60492;SDS011;46341;51.290;-2.474;2022-08-11T14:28:15;2.53;;;0.70;;
60492;SDS011;46341;51.290;-2.474;2022-08-11T14:30:59;2.28;;;1.02;;
60492;SDS011;46341;51.290;-2.474;2022-08-11T14:33:27;1.00;;;0.70;;
60492;SDS011;46341;51.290;-2.474;2022-08-11T14:36:14;1.17;;;0.95;;
60492;SDS011;46341;51.290;-2.474;2022-08-11T14:38:40;1.05;;;0.90;;
60492;SDS011;46341;51.290;-2.474;2022-08-11T14:41:07;1.25;;;0.90;;
60492;SDS011;46341;51.290;-2.474;2022-08-11T14:43:53;1.80;;;1.10;;
60492;SDS011;46341;51.290;-2.474;2022-08-11T14:46:40;2.78;;;0.82;;
60492;SDS011;46341;51.290;-2.474;2022-08-11T14:49:26;2.10;;;0.98;;
60492;SDS011;46341;51.290;-2.474;2022-08-11T14:51:53;2.22;;;0.82;;
60492;SDS011;46341;51.290;-2.474;2022-08-11T14:54:25;3.17;;;1.15;;
60492;SDS011;46341;51.290;-2.474;2022-08-11T14:57:10;1.45;;;0.95;;
60492;SDS011;46341;51.290;-2.474;2022-08-11T14:59:37;1.13;;;0.95;;
60492;SDS011;46341;51.290;-2.474;2022-08-11T15:02:04;1.48;;;0.70;;
60492;SDS011;46341;51.290;-2.474;2022-08-11T15:04:50;1.08;;;0.95;;
60492;SDS011;46341;51.290;-2.474;2022-08-11T15:07:16;0.70;;;0.70;;
60492;SDS011;46341;51.290;-2.474;2022-08-11T15:09:44;0.77;;;0.68;;
60492;SDS011;46341;51.290;-2.474;2022-08-11T15:12:30;1.77;;;0.82;;
60492;SDS011;46341;51.290;-2.474;2022-08-11T15:14:59;5.40;;;1.00;;
60492;SDS011;46341;51.290;-2.474;2022-08-11T15:17:45;2.20;;;0.70;;
60492;SDS011;46341;51.290;-2.474;2022-08-11T15:20:15;1.38;;;0.77;;
60492;SDS011;46341;51.290;-2.474;2022-08-11T15:23:01;2.35;;;1.00;;
60492;SDS011;46341;51.290;-2.474;2022-08-11T15:25:48;2.22;;;0.70;;
60492;SDS011;46341;51.290;-2.474;2022-08-11T15:28:16;2.30;;;0.80;;
60492;SDS011;46341;51.290;-2.474;2022-08-11T15:31:02;1.52;;;0.80;;
60492;SDS011;46341;51.290;-2.474;2022-08-11T15:34:14;2.50;;;0.80;;
60492;SDS011;46341;51.290;-2.474;2022-08-11T15:37:07;2.47;;;0.90;;
60492;SDS011;46341;51.290;-2.474;2022-08-11T15:45:56;1.55;;;0.70;;
60492;SDS011;46341;51.290;-2.474;2022-08-11T15:48:29;2.25;;;0.90;;
60492;SDS011;46341;51.290;-2.474;2022-08-11T15:51:02;1.85;;;0.90;;
60492;SDS011;46341;51.290;-2.474;2022-08-11T15:53:34;0.80;;;0.80;;
60492;SDS011;46341;51.290;-2.474;2022-08-11T15:56:03;1.10;;;0.75;;
60492;SDS011;46341;51.290;-2.474;2022-08-11T15:58:32;2.47;;;0.80;;
60492;SDS011;46341;51.290;-2.474;2022-08-11T16:01:39;2.83;;;0.70;;
60492;SDS011;46341;51.290;-2.474;2022-08-11T16:04:26;0.73;;;0.73;;
60492;SDS011;46341;51.290;-2.474;2022-08-11T16:06:59;3.22;;;0.90;;
60492;SDS011;46341;51.290;-2.474;2022-08-11T16:13:14;0.77;;;0.75;;
60492;SDS011;46341;51.290;-2.474;2022-08-11T16:15:37;0.80;;;0.80;;
60492;SDS011;46341;51.290;-2.474;2022-08-11T16:18:27;1.05;;;0.90;;
60492;SDS011;46341;51.290;-2.474;2022-08-11T16:21:10;2.00;;;0.95;;
60492;SDS011;46341;51.290;-2.474;2022-08-11T16:23:57;2.17;;;1.00;;
60492;SDS011;46341;51.290;-2.474;2022-08-11T16:26:24;1.90;;;0.80;;
60492;SDS011;46341;51.290;-2.474;2022-08-11T16:29:12;1.27;;;0.90;;
60492;SDS011;46341;51.290;-2.474;2022-08-11T16:31:39;1.27;;;0.77;;
60492;SDS011;46341;51.290;-2.474;2022-08-11T16:34:07;6.32;;;1.10;;
60492;SDS011;46341;51.290;-2.474;2022-08-11T16:36:57;1.33;;;1.20;;
60492;SDS011;46341;51.290;-2.474;2022-08-11T16:39:43;5.10;;;1.00;;
60492;SDS011;46341;51.290;-2.474;2022-08-11T16:42:16;0.98;;;0.88;;
60492;SDS011;46341;51.290;-2.474;2022-08-11T16:45:21;1.80;;;1.10;;
60492;SDS011;46341;51.290;-2.474;2022-08-11T16:48:06;1.67;;;1.08;;
60492;SDS011;46341;51.290;-2.474;2022-08-11T16:50:54;2.20;;;1.15;;
60492;SDS011;46341;51.290;-2.474;2022-08-11T16:53:21;1.90;;;1.27;;
60492;SDS011;46341;51.290;-2.474;2022-08-11T16:56:07;1.58;;;1.17;;
60492;SDS011;46341;51.290;-2.474;2022-08-11T16:58:34;1.38;;;1.20;;
60492;SDS011;46341;51.290;-2.474;2022-08-11T17:01:22;1.58;;;1.17;;
60492;SDS011;46341;51.290;-2.474;2022-08-11T17:03:51;1.80;;;1.08;;
60492;SDS011;46341;51.290;-2.474;2022-08-11T17:06:37;2.08;;;1.10;;
60492;SDS011;46341;51.290;-2.474;2022-08-11T17:09:24;1.92;;;1.15;;
60492;SDS011;46341;51.290;-2.474;2022-08-11T17:14:57;1.67;;;1.10;;
60492;SDS011;46341;51.290;-2.474;2022-08-11T17:17:28;4.78;;;1.17;;
60492;SDS011;46341;51.290;-2.474;2022-08-11T17:19:56;1.92;;;1.35;;
60492;SDS011;46341;51.290;-2.474;2022-08-11T17:22:43;1.00;;;1.00;;
60492;SDS011;46341;51.290;-2.474;2022-08-11T17:25:29;1.27;;;1.20;;
60492;SDS011;46341;51.290;-2.474;2022-08-11T17:28:19;3.67;;;1.30;;
60492;SDS011;46341;51.290;-2.474;2022-08-11T17:30:49;3.28;;;1.48;;
60492;SDS011;46341;51.290;-2.474;2022-08-11T17:33:48;1.63;;;1.52;;
60492;SDS011;46341;51.290;-2.474;2022-08-11T17:36:34;2.22;;;1.50;;
60492;SDS011;46341;51.290;-2.474;2022-08-11T17:39:04;2.72;;;1.83;;
60492;SDS011;46341;51.290;-2.474;2022-08-11T17:41:34;2.83;;;2.10;;
60492;SDS011;46341;51.290;-2.474;2022-08-11T17:44:19;3.50;;;1.77;;
60492;SDS011;46341;51.290;-2.474;2022-08-11T17:47:04;3.22;;;2.17;;
60492;SDS011;46341;51.290;-2.474;2022-08-11T17:49:50;4.72;;;2.13;;
60492;SDS011;46341;51.290;-2.474;2022-08-11T17:52:18;3.58;;;2.20;;
60492;SDS011;46341;51.290;-2.474;2022-08-11T17:55:04;2.40;;;2.20;;
60492;SDS011;46341;51.290;-2.474;2022-08-11T17:58:10;2.58;;;2.10;;
60492;SDS011;46341;51.290;-2.474;2022-08-11T18:00:55;2.08;;;1.90;;
60492;SDS011;46341;51.290;-2.474;2022-08-11T18:03:27;2.58;;;1.92;;
60492;SDS011;46341;51.290;-2.474;2022-08-11T18:06:05;2.22;;;1.90;;
60492;SDS011;46341;51.290;-2.474;2022-08-11T18:08:39;2.70;;;1.63;;
60492;SDS011;46341;51.290;-2.474;2022-08-11T18:11:26;3.58;;;1.90;;
60492;SDS011;46341;51.290;-2.474;2022-08-11T18:14:35;2.28;;;1.52;;
60492;SDS011;46341;51.290;-2.474;2022-08-11T18:17:20;2.60;;;1.88;;
60492;SDS011;46341;51.290;-2.474;2022-08-11T18:20:06;3.78;;;1.90;;
60492;SDS011;46341;51.290;-2.474;2022-08-11T18:22:51;2.15;;;1.23;;
60492;SDS011;46341;51.290;-2.474;2022-08-11T18:25:39;2.13;;;1.38;;
60492;SDS011;46341;51.290;-2.474;2022-08-11T18:28:26;1.70;;;1.60;;
60492;SDS011;46341;51.290;-2.474;2022-08-11T18:31:13;2.22;;;1.55;;
60492;SDS011;46341;51.290;-2.474;2022-08-11T18:34:00;2.25;;;1.40;;
60492;SDS011;46341;51.290;-2.474;2022-08-11T18:37:20;3.33;;;1.65;;
60492;SDS011;46341;51.290;-2.474;2022-08-11T18:39:57;2.42;;;1.58;;
60492;SDS011;46341;51.290;-2.474;2022-08-11T18:42:44;1.90;;;1.45;;
60492;SDS011;46341;51.290;-2.474;2022-08-11T18:45:31;3.13;;;1.60;;
60492;SDS011;46341;51.290;-2.474;2022-08-11T18:48:31;1.67;;;1.38;;
60492;SDS011;46341;51.290;-2.474;2022-08-11T18:51:19;1.30;;;1.20;;
60492;SDS011;46341;51.290;-2.474;2022-08-11T18:54:07;2.50;;;1.40;;
60492;SDS011;46341;51.290;-2.474;2022-08-11T18:56:52;1.88;;;1.15;;
60492;SDS011;46341;51.290;-2.474;2022-08-11T18:59:40;1.42;;;1.33;;
60492;SDS011;46341;51.290;-2.474;2022-08-11T19:02:26;4.97;;;2.10;;
60492;SDS011;46341;51.290;-2.474;2022-08-11T19:05:15;4.95;;;1.75;;
60492;SDS011;46341;51.290;-2.474;2022-08-11T19:08:22;3.47;;;1.77;;
60492;SDS011;46341;51.290;-2.474;2022-08-11T19:11:07;1.80;;;1.40;;
60492;SDS011;46341;51.290;-2.474;2022-08-11T19:13:53;4.13;;;1.75;;